sensor_id;sensor_type;location;lat;lon;timestamp;pressure;altitude;pressure_sealevel;temperature;humidity
5966;BME280;3009;43.224;27.976;2022-10-17T00:01:03;101831.94;;;11.23;54.85
5966;BME280;3009;43.224;27.976;2022-10-17T00:03:31;101829.25;;;11.23;55.28
5966;BME280;3009;43.224;27.976;2022-10-17T00:06:04;101842.44;;;11.19;55.55
5966;BME280;3009;43.224;27.976;2022-10-17T00:08:32;101821.22;;;11.17;55.85
5966;BME280;3009;43.224;27.976;2022-10-17T00:11:03;101831.97;;;11.17;55.60
5966;BME280;3009;43.224;27.976;2022-10-17T00:13:32;101830.09;;;11.18;55.29
5966;BME280;3009;43.224;27.976;2022-10-17T00:16:00;101830.88;;;11.18;55.45
5966;BME280;3009;43.224;27.976;2022-10-17T00:18:31;101826.38;;;11.09;55.37
5966;BME280;3009;43.224;27.976;2022-10-17T00:20:59;101811.31;;;11.13;55.45
5966;BME280;3009;43.224;27.976;2022-10-17T00:23:27;101820.72;;;11.10;55.65
5966;BME280;3009;43.224;27.976;2022-10-17T00:26:00;101818.81;;;11.16;55.84
5966;BME280;3009;43.224;27.976;2022-10-17T00:28:28;101812.06;;;11.24;55.97
5966;BME280;3009;43.224;27.976;2022-10-17T00:30:57;101809.88;;;11.31;56.09
5966;BME280;3009;43.224;27.976;2022-10-17T00:33:26;101811.75;;;11.30;56.20
5966;BME280;3009;43.224;27.976;2022-10-17T00:36:03;101801.78;;;11.36;55.86
5966;BME280;3009;43.224;27.976;2022-10-17T00:38:32;101809.88;;;11.31;56.02
5966;BME280;3009;43.224;27.976;2022-10-17T00:41:00;101800.72;;;11.32;55.67
5966;BME280;3009;43.224;27.976;2022-10-17T00:43:29;101812.78;;;11.40;55.27
5966;BME280;3009;43.224;27.976;2022-10-17T00:45:58;101802.31;;;11.38;55.01
5966;BME280;3009;43.224;27.976;2022-10-17T00:48:26;101811.41;;;11.42;54.57
5966;BME280;3009;43.224;27.976;2022-10-17T00:50:55;101806.03;;;11.47;54.67
5966;BME280;3009;43.224;27.976;2022-10-17T00:53:24;101802.81;;;11.45;54.43
5966;BME280;3009;43.224;27.976;2022-10-17T00:55:53;101802.84;;;11.40;54.41
5966;BME280;3009;43.224;27.976;2022-10-17T00:58:21;101802.31;;;11.38;54.31
5966;BME280;3009;43.224;27.976;2022-10-17T01:00:49;101798.88;;;11.32;54.57
5966;BME280;3009;43.224;27.976;2022-10-17T01:03:17;101801.84;;;11.31;54.57
5966;BME280;3009;43.224;27.976;2022-10-17T01:05:46;101802.06;;;11.34;54.57
5966;BME280;3009;43.224;27.976;2022-10-17T01:08:14;101793.22;;;11.29;54.95
5966;BME280;3009;43.224;27.976;2022-10-17T01:10:51;101800.72;;;11.32;55.21
5966;BME280;3009;43.224;27.976;2022-10-17T01:13:28;101800.72;;;11.32;55.53
5966;BME280;3009;43.224;27.976;2022-10-17T01:16:04;101806.38;;;11.30;55.70
5966;BME280;3009;43.224;27.976;2022-10-17T01:18:46;101804.53;;;11.31;55.71
5966;BME280;3009;43.224;27.976;2022-10-17T01:21:36;101803.97;;;11.29;56.06
5966;BME280;3009;43.224;27.976;2022-10-17T01:24:32;101800.50;;;11.28;55.88
5966;BME280;3009;43.224;27.976;2022-10-17T01:27:25;101805.81;;;11.33;55.69
5966;BME280;3009;43.224;27.976;2022-10-17T01:30:27;101802.63;;;11.31;55.65
5966;BME280;3009;43.224;27.976;2022-10-17T01:33:04;101799.44;;;11.29;55.64
5966;BME280;3009;43.224;27.976;2022-10-17T01:35:38;101799.97;;;11.26;55.61
5966;BME280;3009;43.224;27.976;2022-10-17T01:38:11;101804.53;;;11.26;55.36
5966;BME280;3009;43.224;27.976;2022-10-17T01:40:44;101805.06;;;11.28;55.07
5966;BME280;3009;43.224;27.976;2022-10-17T01:43:17;101803.75;;;11.25;54.73
5966;BME280;3009;43.224;27.976;2022-10-17T01:45:51;101807.50;;;11.24;54.77
5966;BME280;3009;43.224;27.976;2022-10-17T01:48:24;101824.44;;;11.25;54.58
5966;BME280;3009;43.224;27.976;2022-10-17T01:50:58;101819.84;;;11.20;54.62
5966;BME280;3009;43.224;27.976;2022-10-17T01:53:31;101817.50;;;11.13;54.75
5966;BME280;3009;43.224;27.976;2022-10-17T01:56:02;101819.06;;;11.20;54.44
5966;BME280;3009;43.224;27.976;2022-10-17T01:58:38;101832.25;;;11.16;54.56
5966;BME280;3009;43.224;27.976;2022-10-17T02:01:10;101823.88;;;11.23;54.07
5966;BME280;3009;43.224;27.976;2022-10-17T02:03:42;101823.31;;;11.31;53.47
5966;BME280;3009;43.224;27.976;2022-10-17T02:06:10;101828.41;;;11.27;53.39
5966;BME280;3009;43.224;27.976;2022-10-17T02:08:40;101828.19;;;11.24;53.34
5966;BME280;3009;43.224;27.976;2022-10-17T02:11:13;101831.13;;;11.22;53.34
5966;BME280;3009;43.224;27.976;2022-10-17T02:14:00;101823.91;;;11.17;53.18
5966;BME280;3009;43.224;27.976;2022-10-17T02:16:37;101822.03;;;11.23;52.98
5966;BME280;3009;43.224;27.976;2022-10-17T02:19:26;101825.50;;;11.18;53.18
5966;BME280;3009;43.224;27.976;2022-10-17T02:22:06;101837.28;;;11.28;53.26
5966;BME280;3009;43.224;27.976;2022-10-17T02:24:45;101839.44;;;11.31;53.34
5966;BME280;3009;43.224;27.976;2022-10-17T02:27:18;101836.50;;;11.22;53.86
5966;BME280;3009;43.224;27.976;2022-10-17T02:29:58;101848.78;;;11.33;53.96
5966;BME280;3009;43.224;27.976;2022-10-17T02:32:33;101838.31;;;11.37;53.96
5966;BME280;3009;43.224;27.976;2022-10-17T02:35:08;101846.34;;;11.42;54.12
5966;BME280;3009;43.224;27.976;2022-10-17T02:37:39;101844.19;;;11.39;54.46
5966;BME280;3009;43.224;27.976;2022-10-17T02:40:10;101842.59;;;11.38;54.95
5966;BME280;3009;43.224;27.976;2022-10-17T02:42:43;101846.84;;;11.49;54.82
5966;BME280;3009;43.224;27.976;2022-10-17T02:45:12;101849.53;;;11.44;55.49
5966;BME280;3009;43.224;27.976;2022-10-17T02:47:48;101850.03;;;11.51;55.57
5966;BME280;3009;43.224;27.976;2022-10-17T02:50:21;101854.09;;;11.49;55.67
5966;BME280;3009;43.224;27.976;2022-10-17T02:52:54;101859.19;;;11.45;56.25
5966;BME280;3009;43.224;27.976;2022-10-17T02:55:27;101859.19;;;11.50;56.55
5966;BME280;3009;43.224;27.976;2022-10-17T02:57:59;101859.44;;;11.54;56.47
5966;BME280;3009;43.224;27.976;2022-10-17T03:00:30;101864.84;;;11.49;56.89
5966;BME280;3009;43.224;27.976;2022-10-17T03:02:59;101857.81;;;11.53;57.30
5966;BME280;3009;43.224;27.976;2022-10-17T03:05:29;101869.84;;;11.61;58.00
5966;BME280;3009;43.224;27.976;2022-10-17T03:07:57;101866.03;;;11.72;58.52
5966;BME280;3009;43.224;27.976;2022-10-17T03:10:25;101871.38;;;11.77;58.95
5966;BME280;3009;43.224;27.976;2022-10-17T03:12:53;101861.16;;;11.79;59.66
5966;BME280;3009;43.224;27.976;2022-10-17T03:15:21;101863.47;;;11.91;59.74
5966;BME280;3009;43.224;27.976;2022-10-17T03:17:49;101859.44;;;11.99;59.75
5966;BME280;3009;43.224;27.976;2022-10-17T03:20:17;101860.50;;;11.98;59.41
5966;BME280;3009;43.224;27.976;2022-10-17T03:22:47;101870.47;;;11.97;59.06
5966;BME280;3009;43.224;27.976;2022-10-17T03:25:15;101872.63;;;11.90;59.09
5966;BME280;3009;43.224;27.976;2022-10-17T03:27:43;101865.94;;;11.93;58.29
5966;BME280;3009;43.224;27.976;2022-10-17T03:30:11;101870.75;;;11.91;58.00
5966;BME280;3009;43.224;27.976;2022-10-17T03:32:40;101855.78;;;11.79;57.52
5966;BME280;3009;43.224;27.976;2022-10-17T03:35:08;101849.91;;;11.72;56.38
5966;BME280;3009;43.224;27.976;2022-10-17T03:37:40;101850.25;;;11.60;56.77
5966;BME280;3009;43.224;27.976;2022-10-17T03:40:10;101853.25;;;11.53;57.73
5966;BME280;3009;43.224;27.976;2022-10-17T03:42:38;101845.22;;;11.48;57.56
5966;BME280;3009;43.224;27.976;2022-10-17T03:45:07;101864.84;;;11.49;57.67
5966;BME280;3009;43.224;27.976;2022-10-17T03:47:35;101846.34;;;11.42;57.09
5966;BME280;3009;43.224;27.976;2022-10-17T03:50:04;101842.63;;;11.33;57.56
5966;BME280;3009;43.224;27.976;2022-10-17T03:52:33;101843.97;;;11.30;57.21
5966;BME280;3009;43.224;27.976;2022-10-17T03:55:01;101858.25;;;11.21;57.11
5966;BME280;3009;43.224;27.976;2022-10-17T03:57:30;101861.50;;;11.12;58.19
5966;BME280;3009;43.224;27.976;2022-10-17T03:59:58;101851.34;;;11.04;57.52
5966;BME280;3009;43.224;27.976;2022-10-17T04:02:26;101864.28;;;10.92;57.48
5966;BME280;3009;43.224;27.976;2022-10-17T04:04:54;101855.13;;;10.93;57.12
5966;BME280;3009;43.224;27.976;2022-10-17T04:07:23;101868.59;;;10.77;57.08
5966;BME280;3009;43.224;27.976;2022-10-17T04:09:52;101871.28;;;10.77;56.81
5966;BME280;3009;43.224;27.976;2022-10-17T04:12:20;101869.91;;;10.85;57.85
5966;BME280;3009;43.224;27.976;2022-10-17T04:14:49;101893.25;;;10.90;58.43
5966;BME280;3009;43.224;27.976;2022-10-17T04:17:18;101891.59;;;10.99;58.12
5966;BME280;3009;43.224;27.976;2022-10-17T04:19:47;101890.53;;;11.00;57.07
5966;BME280;3009;43.224;27.976;2022-10-17T04:22:15;101904.81;;;10.85;57.50
5966;BME280;3009;43.224;27.976;2022-10-17T04:24:44;101902.41;;;10.84;57.66
5966;BME280;3009;43.224;27.976;2022-10-17T04:27:12;101907.78;;;10.78;57.39
5966;BME280;3009;43.224;27.976;2022-10-17T04:29:40;101904.03;;;10.69;56.46
5966;BME280;3009;43.224;27.976;2022-10-17T04:32:10;101911.81;;;10.66;56.27
5966;BME280;3009;43.224;27.976;2022-10-17T04:34:39;101898.41;;;10.66;56.76
5966;BME280;3009;43.224;27.976;2022-10-17T04:37:07;101902.19;;;10.64;57.96
5966;BME280;3009;43.224;27.976;2022-10-17T04:39:35;101911.28;;;10.74;57.20
5966;BME280;3009;43.224;27.976;2022-10-17T04:42:03;101919.31;;;10.79;57.56
5966;BME280;3009;43.224;27.976;2022-10-17T04:44:31;101921.72;;;10.91;57.82
5966;BME280;3009;43.224;27.976;2022-10-17T04:47:01;101915.25;;;10.97;58.31
5966;BME280;3009;43.224;27.976;2022-10-17T04:49:30;101929.47;;;10.97;58.15
5966;BME280;3009;43.224;27.976;2022-10-17T04:51:58;101924.34;;;11.06;57.61
5966;BME280;3009;43.224;27.976;2022-10-17T04:54:26;101934.53;;;11.09;57.68
5966;BME280;3009;43.224;27.976;2022-10-17T04:56:55;101937.47;;;11.18;58.54
5966;BME280;3009;43.224;27.976;2022-10-17T04:59:23;101933.97;;;11.23;58.64
5966;BME280;3009;43.224;27.976;2022-10-17T05:01:51;101939.59;;;11.26;58.73
5966;BME280;3009;43.224;27.976;2022-10-17T05:04:19;101944.69;;;11.28;59.59
5966;BME280;3009;43.224;27.976;2022-10-17T05:06:52;101940.91;;;11.34;59.95
5966;BME280;3009;43.224;27.976;2022-10-17T05:09:20;101942.50;;;11.40;60.37
5966;BME280;3009;43.224;27.976;2022-10-17T05:11:48;101948.63;;;11.51;60.62
5966;BME280;3009;43.224;27.976;2022-10-17T05:14:16;101948.88;;;11.60;60.37
5966;BME280;3009;43.224;27.976;2022-10-17T05:16:44;101963.88;;;11.61;60.31
5966;BME280;3009;43.224;27.976;2022-10-17T05:19:13;101963.59;;;11.62;60.75
5966;BME280;3009;43.224;27.976;2022-10-17T05:21:41;101962.25;;;11.65;60.31
5966;BME280;3009;43.224;27.976;2022-10-17T05:24:12;101961.94;;;11.77;60.54
5966;BME280;3009;43.224;27.976;2022-10-17T05:26:41;101961.94;;;11.77;60.68
5966;BME280;3009;43.224;27.976;2022-10-17T05:29:09;101953.59;;;11.78;61.51
5966;BME280;3009;43.224;27.976;2022-10-17T05:31:37;101965.69;;;11.81;62.52
5966;BME280;3009;43.224;27.976;2022-10-17T05:34:05;101983.38;;;11.97;62.62
5966;BME280;3009;43.224;27.976;2022-10-17T05:36:39;101983.66;;;11.96;62.21
5966;BME280;3009;43.224;27.976;2022-10-17T05:39:07;101988.97;;;12.01;62.85
5966;BME280;3009;43.224;27.976;2022-10-17T05:41:37;101981.16;;;12.04;63.12
5966;BME280;3009;43.224;27.976;2022-10-17T05:44:05;101991.63;;;12.06;64.02
5966;BME280;3009;43.224;27.976;2022-10-17T05:46:33;101981.63;;;12.17;63.78
5966;BME280;3009;43.224;27.976;2022-10-17T05:49:01;101993.19;;;12.17;65.30
5966;BME280;3009;43.224;27.976;2022-10-17T05:51:49;101994.72;;;12.29;65.82
5966;BME280;3009;43.224;27.976;2022-10-17T05:54:17;101998.16;;;12.39;66.31
5966;BME280;3009;43.224;27.976;2022-10-17T05:56:50;102008.25;;;12.53;65.91
5966;BME280;3009;43.224;27.976;2022-10-17T05:59:18;102012.50;;;12.64;65.77
5966;BME280;3009;43.224;27.976;2022-10-17T06:01:46;102019.09;;;12.77;65.23
5966;BME280;3009;43.224;27.976;2022-10-17T06:04:15;102011.63;;;13.03;64.70
5966;BME280;3009;43.224;27.976;2022-10-17T06:06:43;102016.34;;;13.17;65.51
5966;BME280;3009;43.224;27.976;2022-10-17T06:09:11;102021.38;;;13.23;66.84
5966;BME280;3009;43.224;27.976;2022-10-17T06:11:39;102012.81;;;13.45;67.49
5966;BME280;3009;43.224;27.976;2022-10-17T06:14:09;102027.53;;;13.53;68.19
5966;BME280;3009;43.224;27.976;2022-10-17T06:16:37;102019.56;;;13.67;68.08
5966;BME280;3009;43.224;27.976;2022-10-17T06:19:05;102028.16;;;13.69;67.99
5966;BME280;3009;43.224;27.976;2022-10-17T06:21:33;102032.16;;;13.72;67.70
5966;BME280;3009;43.224;27.976;2022-10-17T06:24:03;102021.19;;;13.87;67.23
5966;BME280;3009;43.224;27.976;2022-10-17T06:26:32;102023.88;;;13.87;67.70
5966;BME280;3009;43.224;27.976;2022-10-17T06:29:00;102038.91;;;13.93;67.81
5966;BME280;3009;43.224;27.976;2022-10-17T06:31:30;102032.22;;;14.10;67.46
5966;BME280;3009;43.224;27.976;2022-10-17T06:33:58;102050.81;;;14.11;66.62
5966;BME280;3009;43.224;27.976;2022-10-17T06:36:28;102048.19;;;14.06;66.58
5966;BME280;3009;43.224;27.976;2022-10-17T06:38:56;102039.88;;;14.03;66.75
5966;BME280;3009;43.224;27.976;2022-10-17T06:41:24;102037.84;;;14.13;66.67
5966;BME280;3009;43.224;27.976;2022-10-17T06:43:52;102043.91;;;14.24;66.66
5966;BME280;3009;43.224;27.976;2022-10-17T06:46:20;102059.34;;;14.38;66.04
5966;BME280;3009;43.224;27.976;2022-10-17T06:48:52;102052.56;;;14.40;65.92
5966;BME280;3009;43.224;27.976;2022-10-17T06:51:20;102061.22;;;14.56;65.65
5966;BME280;3009;43.224;27.976;2022-10-17T06:53:48;102071.91;;;14.66;65.03
5966;BME280;3009;43.224;27.976;2022-10-17T06:56:17;102067.59;;;14.65;64.19
5966;BME280;3009;43.224;27.976;2022-10-17T06:58:45;102071.09;;;14.66;64.27
5966;BME280;3009;43.224;27.976;2022-10-17T07:01:15;102068.53;;;14.75;63.98
5966;BME280;3009;43.224;27.976;2022-10-17T07:03:47;102070.72;;;14.73;63.88
5966;BME280;3009;43.224;27.976;2022-10-17T07:06:17;102083.06;;;14.79;63.57
5966;BME280;3009;43.224;27.976;2022-10-17T07:08:45;102052.03;;;14.76;63.25
5966;BME280;3009;43.224;27.976;2022-10-17T07:11:19;102079.31;;;14.94;63.17
5966;BME280;3009;43.224;27.976;2022-10-17T07:13:48;102072.22;;;14.98;62.81
5966;BME280;3009;43.224;27.976;2022-10-17T07:16:16;102073.44;;;15.05;62.70
5966;BME280;3009;43.224;27.976;2022-10-17T07:18:47;102080.66;;;15.10;63.19
5966;BME280;3009;43.224;27.976;2022-10-17T07:21:17;102077.06;;;15.15;62.50
5966;BME280;3009;43.224;27.976;2022-10-17T07:23:45;102083.38;;;15.24;62.37
5966;BME280;3009;43.224;27.976;2022-10-17T07:26:15;102085.97;;;15.29;62.27
5966;BME280;3009;43.224;27.976;2022-10-17T07:28:45;102095.94;;;15.48;62.03
5966;BME280;3009;43.224;27.976;2022-10-17T07:31:16;102086.50;;;15.59;62.25
5966;BME280;3009;43.224;27.976;2022-10-17T07:33:45;102093.16;;;15.81;61.53
5966;BME280;3009;43.224;27.976;2022-10-17T07:36:14;102095.06;;;15.80;61.52
5966;BME280;3009;43.224;27.976;2022-10-17T07:38:43;102086.44;;;15.78;61.42
5966;BME280;3009;43.224;27.976;2022-10-17T07:41:12;102095.16;;;15.89;61.33
5966;BME280;3009;43.224;27.976;2022-10-17T07:43:47;102096.03;;;15.98;60.74
5966;BME280;3009;43.224;27.976;2022-10-17T07:46:16;102074.88;;;16.00;60.71
5966;BME280;3009;43.224;27.976;2022-10-17T07:48:44;102079.69;;;16.03;60.56
5966;BME280;3009;43.224;27.976;2022-10-17T07:51:12;102084.50;;;16.20;60.64
5966;BME280;3009;43.224;27.976;2022-10-17T07:53:40;102073.31;;;16.36;59.77
5966;BME280;3009;43.224;27.976;2022-10-17T07:56:16;102097.56;;;16.41;58.06
5966;BME280;3009;43.224;27.976;2022-10-17T07:58:44;102078.56;;;16.32;58.79
5966;BME280;3009;43.224;27.976;2022-10-17T08:01:14;102077.84;;;16.26;60.26
5966;BME280;3009;43.224;27.976;2022-10-17T08:03:44;102099.78;;;16.39;58.72
5966;BME280;3009;43.224;27.976;2022-10-17T08:06:14;102073.88;;;16.46;57.26
5966;BME280;3009;43.224;27.976;2022-10-17T08:08:42;102095.88;;;16.31;57.48
5966;BME280;3009;43.224;27.976;2022-10-17T08:11:13;102082.84;;;16.33;58.59
5966;BME280;3009;43.224;27.976;2022-10-17T08:13:43;102080.03;;;16.38;57.87
5966;BME280;3009;43.224;27.976;2022-10-17T08:16:11;102086.88;;;16.22;59.60
5966;BME280;3009;43.224;27.976;2022-10-17T08:18:41;102083.03;;;16.37;59.34
5966;BME280;3009;43.224;27.976;2022-10-17T08:21:11;102081.31;;;16.41;60.25
5966;BME280;3009;43.224;27.976;2022-10-17T08:23:40;102074.97;;;16.45;60.13
5966;BME280;3009;43.224;27.976;2022-10-17T08:26:09;102091.22;;;16.45;59.93
5966;BME280;3009;43.224;27.976;2022-10-17T08:28:39;102087.31;;;16.52;60.25
5966;BME280;3009;43.224;27.976;2022-10-17T08:31:11;102094.06;;;16.63;60.96
5966;BME280;3009;43.224;27.976;2022-10-17T08:33:40;102085.81;;;16.45;60.04
5966;BME280;3009;43.224;27.976;2022-10-17T08:36:09;102082.88;;;16.19;61.42
5966;BME280;3009;43.224;27.976;2022-10-17T08:38:39;102089.44;;;16.41;61.25
5966;BME280;3009;43.224;27.976;2022-10-17T08:41:14;102089.88;;;16.34;59.93
5966;BME280;3009;43.224;27.976;2022-10-17T08:43:59;102075.97;;;16.50;61.12
5966;BME280;3009;43.224;27.976;2022-10-17T08:46:33;102091.63;;;16.98;60.09
5966;BME280;3009;43.224;27.976;2022-10-17T08:49:05;102081.94;;;16.97;59.83
5966;BME280;3009;43.224;27.976;2022-10-17T08:51:41;102092.75;;;16.97;59.95
5966;BME280;3009;43.224;27.976;2022-10-17T08:54:15;102087.03;;;16.98;59.30
5966;BME280;3009;43.224;27.976;2022-10-17T08:56:48;102092.47;;;17.07;59.69
5966;BME280;3009;43.224;27.976;2022-10-17T08:59:17;102094.94;;;17.17;59.62
5966;BME280;3009;43.224;27.976;2022-10-17T09:01:51;102099.44;;;16.99;58.48
5966;BME280;3009;43.224;27.976;2022-10-17T09:04:44;102093.50;;;16.89;59.37
5966;BME280;3009;43.224;27.976;2022-10-17T09:07:18;102099.00;;;17.29;58.99
5966;BME280;3009;43.224;27.976;2022-10-17T09:09:54;102108.38;;;17.23;56.89
5966;BME280;3009;43.224;27.976;2022-10-17T09:12:30;102092.38;;;17.12;56.87
5966;BME280;3009;43.224;27.976;2022-10-17T09:15:28;102102.81;;;17.28;56.99
5966;BME280;3009;43.224;27.976;2022-10-17T09:18:02;102101.41;;;17.39;55.77
5966;BME280;3009;43.224;27.976;2022-10-17T09:20:38;102103.28;;;17.30;55.27
5966;BME280;3009;43.224;27.976;2022-10-17T09:23:11;102113.16;;;17.26;55.30
5966;BME280;3009;43.224;27.976;2022-10-17T09:25:41;102091.03;;;17.32;54.31
5966;BME280;3009;43.224;27.976;2022-10-17T09:28:15;102102.22;;;17.08;55.73
5966;BME280;3009;43.224;27.976;2022-10-17T09:30:47;102108.69;;;17.21;55.14
5966;BME280;3009;43.224;27.976;2022-10-17T09:33:20;102113.84;;;17.09;55.85
5966;BME280;3009;43.224;27.976;2022-10-17T09:36:02;102090.97;;;17.24;55.78
5966;BME280;3009;43.224;27.976;2022-10-17T09:38:37;102102.69;;;17.10;56.21
5966;BME280;3009;43.224;27.976;2022-10-17T09:41:14;102103.47;;;17.02;56.21
5966;BME280;3009;43.224;27.976;2022-10-17T09:44:22;102090.41;;;17.35;55.88
5966;BME280;3009;43.224;27.976;2022-10-17T09:47:06;102090.91;;;17.46;54.80
5966;BME280;3009;43.224;27.976;2022-10-17T09:49:38;102096.81;;;17.40;55.19
5966;BME280;3009;43.224;27.976;2022-10-17T09:52:11;102082.56;;;17.34;55.03
5966;BME280;3009;43.224;27.976;2022-10-17T09:54:43;102085.28;;;17.34;54.53
5966;BME280;3009;43.224;27.976;2022-10-17T09:57:13;102084.09;;;17.17;55.60
5966;BME280;3009;43.224;27.976;2022-10-17T09:59:43;102079.88;;;17.34;55.76
5966;BME280;3009;43.224;27.976;2022-10-17T10:02:18;102080.91;;;17.56;55.22
5966;BME280;3009;43.224;27.976;2022-10-17T10:05:03;102074.22;;;17.62;55.81
5966;BME280;3009;43.224;27.976;2022-10-17T10:07:35;102079.84;;;17.65;55.89
5966;BME280;3009;43.224;27.976;2022-10-17T10:10:07;102080.00;;;17.69;55.46
5966;BME280;3009;43.224;27.976;2022-10-17T10:13:02;102075.63;;;17.50;55.60
5966;BME280;3009;43.224;27.976;2022-10-17T10:15:34;102086.84;;;17.58;56.43
5966;BME280;3009;43.224;27.976;2022-10-17T10:18:27;102075.53;;;17.73;55.57
5966;BME280;3009;43.224;27.976;2022-10-17T10:21:08;102079.53;;;17.84;54.58
5966;BME280;3009;43.224;27.976;2022-10-17T10:23:37;102074.13;;;17.84;53.67
5966;BME280;3009;43.224;27.976;2022-10-17T10:26:20;102076.78;;;17.58;55.96
5966;BME280;3009;43.224;27.976;2022-10-17T10:28:57;102070.22;;;17.50;56.04
5966;BME280;3009;43.224;27.976;2022-10-17T10:31:30;102072.84;;;17.33;57.68
5966;BME280;3009;43.224;27.976;2022-10-17T10:34:00;102063.88;;;17.64;56.15
5966;BME280;3009;43.224;27.976;2022-10-17T10:36:44;102065.56;;;17.51;55.76
5966;BME280;3009;43.224;27.976;2022-10-17T10:39:31;102071.63;;;17.48;55.59
5966;BME280;3009;43.224;27.976;2022-10-17T10:42:04;102065.44;;;17.56;55.57
5966;BME280;3009;43.224;27.976;2022-10-17T10:44:35;102064.66;;;17.64;56.75
5966;BME280;3009;43.224;27.976;2022-10-17T10:47:08;102070.63;;;17.35;56.12
5966;BME280;3009;43.224;27.976;2022-10-17T10:49:41;102067.72;;;17.31;56.80
5966;BME280;3009;43.224;27.976;2022-10-17T10:52:18;102071.59;;;17.39;56.61
5966;BME280;3009;43.224;27.976;2022-10-17T10:54:55;102059.69;;;17.17;58.81
5966;BME280;3009;43.224;27.976;2022-10-17T10:57:28;102070.59;;;17.26;59.62
5966;BME280;3009;43.224;27.976;2022-10-17T11:00:03;102062.63;;;17.30;58.94
5966;BME280;3009;43.224;27.976;2022-10-17T11:02:36;102057.59;;;17.46;57.84
5966;BME280;3009;43.224;27.976;2022-10-17T11:05:12;102063.19;;;17.49;57.21
5966;BME280;3009;43.224;27.976;2022-10-17T11:07:46;102057.63;;;17.54;57.16
5966;BME280;3009;43.224;27.976;2022-10-17T11:10:22;102054.84;;;17.37;56.73
5966;BME280;3009;43.224;27.976;2022-10-17T11:12:56;102059.28;;;17.33;58.39
5966;BME280;3009;43.224;27.976;2022-10-17T11:15:32;102054.84;;;17.37;59.04
5966;BME280;3009;43.224;27.976;2022-10-17T11:18:04;102050.31;;;17.24;58.83
5966;BME280;3009;43.224;27.976;2022-10-17T11:20:39;102061.38;;;17.36;57.92
5966;BME280;3009;43.224;27.976;2022-10-17T11:23:16;102069.50;;;17.36;56.90
5966;BME280;3009;43.224;27.976;2022-10-17T11:25:49;102050.41;;;17.10;56.17
5966;BME280;3009;43.224;27.976;2022-10-17T11:28:19;102039.13;;;17.16;56.68
5966;BME280;3009;43.224;27.976;2022-10-17T11:30:51;102049.38;;;17.20;56.83
5966;BME280;3009;43.224;27.976;2022-10-17T11:33:27;102044.41;;;17.22;56.61
5966;BME280;3009;43.224;27.976;2022-10-17T11:36:00;102048.13;;;17.26;57.71
5966;BME280;3009;43.224;27.976;2022-10-17T11:38:39;102037.28;;;17.26;57.77
5966;BME280;3009;43.224;27.976;2022-10-17T11:41:12;102037.94;;;17.40;57.36
5966;BME280;3009;43.224;27.976;2022-10-17T11:43:47;102042.38;;;17.27;55.35
5966;BME280;3009;43.224;27.976;2022-10-17T11:46:20;102042.34;;;17.18;57.05
5966;BME280;3009;43.224;27.976;2022-10-17T11:49:05;102038.06;;;17.26;57.08
5966;BME280;3009;43.224;27.976;2022-10-17T11:51:47;102045.31;;;17.08;58.12
5966;BME280;3009;43.224;27.976;2022-10-17T11:54:36;102046.56;;;16.79;55.80
5966;BME280;3009;43.224;27.976;2022-10-17T11:57:25;102039.78;;;16.91;56.62
5966;BME280;3009;43.224;27.976;2022-10-17T12:00:10;102041.22;;;16.88;58.35
5966;BME280;3009;43.224;27.976;2022-10-17T12:02:51;102038.88;;;16.95;58.65
5966;BME280;3009;43.224;27.976;2022-10-17T12:05:29;102050.00;;;16.94;58.77
5966;BME280;3009;43.224;27.976;2022-10-17T12:08:04;102044.22;;;17.09;58.86
5966;BME280;3009;43.224;27.976;2022-10-17T12:10:57;102031.75;;;17.08;59.24
5966;BME280;3009;43.224;27.976;2022-10-17T12:13:48;102047.56;;;17.15;58.49
5966;BME280;3009;43.224;27.976;2022-10-17T12:16:44;102042.75;;;17.12;58.08
5966;BME280;3009;43.224;27.976;2022-10-17T12:19:23;102041.00;;;17.07;58.61
5966;BME280;3009;43.224;27.976;2022-10-17T12:21:56;102052.91;;;16.97;58.67
5966;BME280;3009;43.224;27.976;2022-10-17T12:24:38;102041.44;;;17.00;59.15
5966;BME280;3009;43.224;27.976;2022-10-17T12:30:18;102045.34;;;17.17;59.37
5966;BME280;3009;43.224;27.976;2022-10-17T12:33:15;102074.97;;;17.13;60.04
5966;BME280;3009;43.224;27.976;2022-10-17T12:35:48;102053.94;;;16.88;58.94
5966;BME280;3009;43.224;27.976;2022-10-17T12:38:23;102048.03;;;16.86;58.99
5966;BME280;3009;43.224;27.976;2022-10-17T12:41:01;102050.00;;;16.71;59.74
5966;BME280;3009;43.224;27.976;2022-10-17T12:43:51;102042.94;;;16.61;60.94
5966;BME280;3009;43.224;27.976;2022-10-17T12:46:45;102046.38;;;16.53;61.29
5966;BME280;3009;43.224;27.976;2022-10-17T12:49:22;102054.69;;;16.57;60.91
5966;BME280;3009;43.224;27.976;2022-10-17T12:54:52;102049.81;;;16.45;60.53
5966;BME280;3009;43.224;27.976;2022-10-17T12:57:36;102058.31;;;16.52;60.58
5966;BME280;3009;43.224;27.976;2022-10-17T13:00:15;102041.16;;;16.57;59.84
5966;BME280;3009;43.224;27.976;2022-10-17T13:02:46;102049.13;;;16.62;60.37
5966;BME280;3009;43.224;27.976;2022-10-17T13:05:27;102040.09;;;16.44;61.03
5966;BME280;3009;43.224;27.976;2022-10-17T13:08:03;102047.28;;;16.48;60.53
5966;BME280;3009;43.224;27.976;2022-10-17T13:10:35;102042.78;;;16.44;59.88
5966;BME280;3009;43.224;27.976;2022-10-17T13:13:14;102043.09;;;16.42;59.82
5966;BME280;3009;43.224;27.976;2022-10-17T13:15:47;102048.78;;;16.32;60.57
5966;BME280;3009;43.224;27.976;2022-10-17T13:18:22;102048.78;;;16.32;61.19
5966;BME280;3009;43.224;27.976;2022-10-17T13:20:56;102042.38;;;16.28;61.01
5966;BME280;3009;43.224;27.976;2022-10-17T13:23:25;102041.13;;;16.34;61.66
5966;BME280;3009;43.224;27.976;2022-10-17T13:26:16;102045.47;;;16.35;60.90
5966;BME280;3009;43.224;27.976;2022-10-17T13:28:59;102043.28;;;16.23;61.50
5966;BME280;3009;43.224;27.976;2022-10-17T13:31:30;102062.72;;;16.25;61.84
5966;BME280;3009;43.224;27.976;2022-10-17T13:34:01;102061.84;;;16.16;61.06
5966;BME280;3009;43.224;27.976;2022-10-17T13:36:30;102053.41;;;16.18;61.57